Janice E. Strait — WDG4317 — position and weather

sailwx.info

Track history (hours):
 
Tides and Currents Weather Stations Pressure Air Temp Water Temp Dewpoint Dewpoint Depression Visibility Wind Speed Wind Dir Waves Ship Positions

Janice E. Strait

Owner: Western Rivers Boat Management, Inc., paducah, KY. More information available from US FCC via Universal Licensing System and Coast Guard Vessel Documentation Center.

Last reported at 2017-Nov-07 08:20 UTC. Time now 2017-Nov-22 01:37 UTC.
Position N 32°45' W 091°09'.
Warning: this ship's position is 14 days out of date.

Length 66 m; draft 3 m.

Type: Towing. MMSI: 367535280.

Date/timePositionNaut miles runAvg speedWind from/ knotsBaromVisibWave heightAir tempDewpointWater temp
2017-Nov-07 08:20N 32°45' W 091°09'0 0.0
2017-Nov-07 07:39N 32°45' W 091°09'0 0.3
2017-Nov-07 07:30N 32°45' W 091°09'0 0.0
2017-Nov-07 06:58N 32°45' W 091°09'5 1.4
2017-Nov-07 03:11N 32°40' W 091°07'1 5.5
2017-Nov-07 03:00N 32°40' W 091°08'2 4.1
2017-Nov-07 02:27N 32°38' W 091°09'2 4.8
2017-Nov-07 02:00N 32°36' W 091°09'3 5.8
2017-Nov-07 01:30N 32°34' W 091°06'3 4.7
2017-Nov-07 00:59N 32°32' W 091°06'3 5.6
2017-Nov-07 00:30N 32°29' W 091°07'3 5.8
2017-Nov-07 00:00N 32°27' W 091°05'3 6.0
2017-Nov-06 23:30N 32°26' W 091°01'3 5.1
2017-Nov-06 23:00N 32°24' W 090°59'2 4.8
2017-Nov-06 22:30N 32°22' W 091°00'3 5.0
2017-Nov-06 22:00N 32°21' W 090°57'1 2.2
2017-Nov-06 21:30N 32°21' W 090°56'2 3.0
2017-Nov-06 21:00N 32°20' W 090°54'3 5.1
2017-Nov-06 20:30N 32°18' W 090°55'  
2017-Oct-30 13:48N 31°50' W 091°21'16 5.7
2017-Oct-30 11:03N 31°59' W 091°06'0 7.1
2017-Oct-30 11:00N 31°59' W 091°06'4 7.4
2017-Oct-30 10:30N 32°03' W 091°03'4 6.8
2017-Oct-30 09:53N 32°06' W 091°06'1 3.4
2017-Oct-30 09:30N 32°08' W 091°06'2 4.5
2017-Oct-30 09:01N 32°08' W 091°04'3 6.1
2017-Oct-30 08:30N 32°09' W 091°00'4 7.5
2017-Oct-30 08:00N 32°12' W 090°59'4 7.5
2017-Oct-30 07:30N 32°16' W 090°58'3 7.0
2017-Oct-30 07:00N 32°18' W 090°55'2 5.0
2017-Oct-30 06:30N 32°21' W 090°55'3 6.8
2017-Oct-30 06:00N 32°21' W 090°59'3 6.0
2017-Oct-30 05:30N 32°24' W 090°59'3 6.8
2017-Oct-30 05:00N 32°26' W 091°03'4 7.1
2017-Oct-30 04:30N 32°28' W 091°06'3 6.5
2017-Oct-30 04:00N 32°31' W 091°06'3 6.7
2017-Oct-30 03:30N 32°34' W 091°07'4 7.2
2017-Oct-30 02:58N 32°38' W 091°09'  
Track history (hours):
 
Tides and Currents Weather Stations Pressure Air Temp Water Temp Dewpoint Dewpoint Depression Visibility Wind Speed Wind Dir Waves Ship Positions

Janice E. Strait

Owner: Western Rivers Boat Management, Inc., paducah, KY. More information available from US FCC via Universal Licensing System and Coast Guard Vessel Documentation Center.

Last reported at 2017-Nov-07 08:20 UTC. Time now 2017-Nov-22 01:37 UTC.
Position N 32°45' W 091°09'.
Warning: this ship's position is 14 days out of date.

Length 66 m; draft 3 m.

Type: Towing. MMSI: 367535280.

Date/timePositionNaut miles runAvg speedWind from/ knotsBaromVisibWave heightAir tempDewpointWater temp
2017-Nov-07 08:20N 32°45' W 091°09'0 0.0
2017-Nov-07 07:39N 32°45' W 091°09'0 0.3
2017-Nov-07 07:30N 32°45' W 091°09'0 0.0
2017-Nov-07 06:58N 32°45' W 091°09'5 1.4
2017-Nov-07 03:11N 32°40' W 091°07'1 5.5
2017-Nov-07 03:00N 32°40' W 091°08'2 4.1
2017-Nov-07 02:27N 32°38' W 091°09'2 4.8
2017-Nov-07 02:00N 32°36' W 091°09'3 5.8
2017-Nov-07 01:30N 32°34' W 091°06'3 4.7
2017-Nov-07 00:59N 32°32' W 091°06'3 5.6
2017-Nov-07 00:30N 32°29' W 091°07'3 5.8
2017-Nov-07 00:00N 32°27' W 091°05'3 6.0
2017-Nov-06 23:30N 32°26' W 091°01'3 5.1
2017-Nov-06 23:00N 32°24' W 090°59'2 4.8
2017-Nov-06 22:30N 32°22' W 091°00'3 5.0
2017-Nov-06 22:00N 32°21' W 090°57'1 2.2
2017-Nov-06 21:30N 32°21' W 090°56'2 3.0
2017-Nov-06 21:00N 32°20' W 090°54'3 5.1
2017-Nov-06 20:30N 32°18' W 090°55'  
2017-Oct-30 13:48N 31°50' W 091°21'16 5.7
2017-Oct-30 11:03N 31°59' W 091°06'0 7.1
2017-Oct-30 11:00N 31°59' W 091°06'4 7.4
2017-Oct-30 10:30N 32°03' W 091°03'4 6.8
2017-Oct-30 09:53N 32°06' W 091°06'1 3.4
2017-Oct-30 09:30N 32°08' W 091°06'2 4.5
2017-Oct-30 09:01N 32°08' W 091°04'3 6.1
2017-Oct-30 08:30N 32°09' W 091°00'4 7.5
2017-Oct-30 08:00N 32°12' W 090°59'4 7.5
2017-Oct-30 07:30N 32°16' W 090°58'3 7.0
2017-Oct-30 07:00N 32°18' W 090°55'2 5.0
2017-Oct-30 06:30N 32°21' W 090°55'3 6.8
2017-Oct-30 06:00N 32°21' W 090°59'3 6.0
2017-Oct-30 05:30N 32°24' W 090°59'3 6.8
2017-Oct-30 05:00N 32°26' W 091°03'4 7.1
2017-Oct-30 04:30N 32°28' W 091°06'3 6.5
2017-Oct-30 04:00N 32°31' W 091°06'3 6.7
2017-Oct-30 03:30N 32°34' W 091°07'4 7.2
2017-Oct-30 02:58N 32°38' W 091°09'  

Dump ship's entire track history